PWSweather.com
Personal Weather Stations
Station Observations
SWHWX01
St AppolinardFR 38160

St AppolinardFR 38160

Lat: 45.191, Lon: 5.268

Elevation: 1460

Station Type: Davis Vantage Pro2 Plus

www.sweetwebhome.com/?show=wxindex

High Low Average
Temperature 76.9°F24.9°F 56.4°F13.6°F 66.7°F19.3°F
Dew Point 55.6°F13.1°F 45.7°F7.6°F 50.9°F10.5°F
Winds 8.4 mph NW13.5 mph NW Calm Calm 3.3 mph 5.3 mph
Wind Gusts 15.0 mph24.1 mph -- 5.7 mph9.2 mph
Humidity 69% 44% 58%
Pressure 30.20 in1022.70 in 30.08 in1018.60 in -
Precipitation 0.00 in0.00 in - -
Hour Temp Dew Point Humidity Winds Wind Gusts Pressure Precip Precip Rate Daily Precip Total
12:00 AM 60.0°F15.6°C 46.1°F7.8°C 60% 0.6 mph NE1.0 kmh NE 3.0 mph4.8 kmh 30.20 in1022.7 mb - 0.00 in0.0 mm 0.00 in0.0 mm
12:30 AM 60.0°F15.6°C 46.1°F7.8°C 60% 1.0 mph N1.6 kmh N 3.0 mph4.8 kmh 30.20 in1022.7 mb - 0.00 in0.0 mm 0.00 in0.0 mm
01:00 AM 59.8°F15.4°C 45.9°F7.7°C 60% 2.7 mph NNW4.3 kmh NNW 5.0 mph8.0 kmh 30.20 in1022.7 mb - 0.00 in0.0 mm 0.00 in0.0 mm
01:30 AM 58.3°F14.6°C 45.7°F7.6°C 63% 0.1 mph NNW0.2 kmh NNW 1.0 mph1.6 kmh 30.20 in1022.7 mb - 0.00 in0.0 mm 0.00 in0.0 mm
02:00 AM 58.5°F14.7°C 45.9°F7.7°C 63% Calm Calm -- 30.20 in1022.7 mb - 0.00 in0.0 mm 0.00 in0.0 mm
02:30 AM 57.7°F14.3°C 46.0°F7.8°C 65% 3.3 mph N5.3 kmh N 5.0 mph8.0 kmh 30.19 in1022.4 mb - 0.00 in0.0 mm 0.00 in0.0 mm
03:00 AM 57.2°F14.0°C 45.9°F7.7°C 66% 4.7 mph NNW7.6 kmh NNW 6.0 mph9.7 kmh 30.19 in1022.4 mb - 0.00 in0.0 mm 0.00 in0.0 mm
03:30 AM 57.1°F13.9°C 45.8°F7.7°C 66% 4.7 mph NW7.6 kmh NW 7.0 mph11.3 kmh 30.18 in1022.0 mb - 0.00 in0.0 mm 0.00 in0.0 mm
04:00 AM 56.9°F13.8°C 46.1°F7.8°C 67% 5.5 mph NNW8.9 kmh NNW 7.0 mph11.3 kmh 30.18 in1022.0 mb - 0.00 in0.0 mm 0.00 in0.0 mm
04:30 AM 57.3°F14.1°C 46.0°F7.8°C 66% 3.7 mph NNW6.0 kmh NNW 4.0 mph6.4 kmh 30.17 in1021.7 mb - 0.00 in0.0 mm 0.00 in0.0 mm
05:00 AM 57.4°F14.1°C 46.2°F7.9°C 66% 5.2 mph NNW8.4 kmh NNW 7.0 mph11.3 kmh 30.18 in1022.0 mb - 0.00 in0.0 mm 0.00 in0.0 mm
05:30 AM 56.8°F13.8°C 46.0°F7.8°C 67% 6.9 mph WNW11.1 kmh WNW 9.0 mph14.5 kmh 30.18 in1022.0 mb - 0.00 in0.0 mm 0.00 in0.0 mm
06:00 AM 56.4°F13.6°C 46.0°F7.8°C 68% 6.2 mph NNW10.0 kmh NNW 8.0 mph12.9 kmh 30.18 in1022.0 mb - 0.00 in0.0 mm 0.00 in0.0 mm
06:30 AM 57.3°F14.1°C 46.8°F8.2°C 68% 4.3 mph NNW6.9 kmh NNW 5.0 mph8.0 kmh 30.19 in1022.4 mb - 0.00 in0.0 mm 0.00 in0.0 mm
07:00 AM 58.4°F14.7°C 48.3°F9.1°C 69% 0.7 mph NW1.1 kmh NW 1.0 mph1.6 kmh 30.20 in1022.7 mb - 0.00 in0.0 mm 0.00 in0.0 mm
07:30 AM 61.4°F16.3°C 49.9°F9.9°C 66% 0.4 mph NW0.6 kmh NW 2.0 mph3.2 kmh 30.19 in1022.4 mb - 0.00 in0.0 mm 0.00 in0.0 mm
08:00 AM 62.7°F17.1°C 51.2°F10.7°C 66% 2.1 mph ENE3.4 kmh ENE 3.0 mph4.8 kmh 30.19 in1022.4 mb - 0.00 in0.0 mm 0.00 in0.0 mm
08:30 AM 64.9°F18.3°C 51.5°F10.8°C 62% 3.2 mph ENE5.1 kmh ENE 4.0 mph6.4 kmh 30.20 in1022.7 mb - 0.00 in0.0 mm 0.00 in0.0 mm
09:00 AM 67.4°F19.7°C 50.2°F10.1°C 54% 5.5 mph ENE8.9 kmh ENE 10.0 mph16.1 kmh 30.20 in1022.7 mb - 0.00 in0.0 mm 0.00 in0.0 mm
09:30 AM 67.3°F19.6°C 50.6°F10.3°C 55% 3.9 mph ENE6.3 kmh ENE 4.0 mph6.4 kmh 30.19 in1022.4 mb - 0.00 in0.0 mm 0.00 in0.0 mm
10:00 AM 69.2°F20.7°C 51.3°F10.7°C 53% 3.9 mph E6.3 kmh E 8.0 mph12.9 kmh 30.18 in1022.0 mb - 0.00 in0.0 mm 0.00 in0.0 mm
10:30 AM 70.3°F21.3°C 51.8°F11.0°C 52% 3.0 mph NNW4.8 kmh NNW 10.0 mph16.1 kmh 30.18 in1022.0 mb - 0.00 in0.0 mm 0.00 in0.0 mm
11:00 AM 69.4°F20.8°C 51.0°F10.6°C 52% 6.0 mph N9.7 kmh N 9.0 mph14.5 kmh 30.17 in1021.7 mb - 0.00 in0.0 mm 0.00 in0.0 mm
11:30 AM 69.8°F21.0°C 52.4°F11.3°C 54% 6.1 mph N9.8 kmh N 11.0 mph17.7 kmh 30.17 in1021.7 mb - 0.00 in0.0 mm 0.00 in0.0 mm
12:00 PM 70.1°F21.2°C 51.2°F10.7°C 51% 3.6 mph NNW5.8 kmh NNW 11.0 mph17.7 kmh 30.16 in1021.3 mb - 0.00 in0.0 mm 0.00 in0.0 mm
12:30 PM 71.6°F22.0°C 51.9°F11.1°C 50% 1.5 mph NNE2.4 kmh NNE 7.0 mph11.3 kmh 30.16 in1021.3 mb - 0.00 in0.0 mm 0.00 in0.0 mm
01:00 PM 72.1°F22.3°C 51.3°F10.7°C 48% 6.0 mph N9.7 kmh N 10.0 mph16.1 kmh 30.14 in1020.7 mb - 0.00 in0.0 mm 0.00 in0.0 mm
01:30 PM 74.6°F23.7°C 51.3°F10.7°C 44% 1.9 mph N3.1 kmh N 5.0 mph8.0 kmh 30.14 in1020.7 mb - 0.00 in0.0 mm 0.00 in0.0 mm
02:00 PM 74.2°F23.4°C 51.5°F10.8°C 45% 2.9 mph NE4.7 kmh NE 4.0 mph6.4 kmh 30.13 in1020.3 mb - 0.00 in0.0 mm 0.00 in0.0 mm
02:30 PM 75.1°F23.9°C 52.9°F11.6°C 46% 2.1 mph NE3.4 kmh NE 5.0 mph8.0 kmh 30.12 in1020.0 mb - 0.00 in0.0 mm 0.00 in0.0 mm
03:00 PM 74.7°F23.7°C 53.1°F11.7°C 47% 8.4 mph NW13.5 kmh NW 15.0 mph24.1 kmh 30.12 in1020.0 mb - 0.00 in0.0 mm 0.00 in0.0 mm
03:30 PM 75.5°F24.2°C 52.7°F11.5°C 45% 2.4 mph N3.9 kmh N 10.0 mph16.1 kmh 30.11 in1019.6 mb - 0.00 in0.0 mm 0.00 in0.0 mm
04:00 PM 76.9°F24.9°C 53.9°F12.2°C 45% 6.9 mph NW11.1 kmh NW 10.0 mph16.1 kmh 30.10 in1019.3 mb - 0.00 in0.0 mm 0.00 in0.0 mm
04:30 PM 76.2°F24.6°C 53.9°F12.2°C 46% 5.1 mph NW8.2 kmh NW 8.0 mph12.9 kmh 30.10 in1019.3 mb - 0.00 in0.0 mm 0.00 in0.0 mm
05:00 PM 76.9°F24.9°C 54.5°F12.5°C 46% 5.2 mph NNW8.4 kmh NNW 8.0 mph12.9 kmh 30.09 in1019.0 mb - 0.00 in0.0 mm 0.00 in0.0 mm
05:30 PM 76.4°F24.7°C 54.0°F12.2°C 46% 2.4 mph NE3.9 kmh NE 5.0 mph8.0 kmh 30.09 in1019.0 mb - 0.00 in0.0 mm 0.00 in0.0 mm
06:00 PM 76.0°F24.4°C 53.7°F12.1°C 46% 2.3 mph N3.7 kmh N 5.0 mph8.0 kmh 30.09 in1019.0 mb - 0.00 in0.0 mm 0.00 in0.0 mm
06:30 PM 75.7°F24.3°C 55.2°F12.9°C 49% 1.5 mph NNE2.4 kmh NNE 3.0 mph4.8 kmh 30.08 in1018.6 mb - 0.00 in0.0 mm 0.00 in0.0 mm
07:00 PM 73.2°F22.9°C 55.6°F13.1°C 54% 1.1 mph NE1.8 kmh NE 1.0 mph1.6 kmh 30.08 in1018.6 mb - 0.00 in0.0 mm 0.00 in0.0 mm
07:30 PM 70.6°F21.4°C 55.1°F12.8°C 58% 1.4 mph NE2.3 kmh NE 3.0 mph4.8 kmh 30.09 in1019.0 mb - 0.00 in0.0 mm 0.00 in0.0 mm
08:00 PM 69.3°F20.7°C 55.2°F12.9°C 61% 3.4 mph N5.5 kmh N 5.0 mph8.0 kmh 30.09 in1019.0 mb - 0.00 in0.0 mm 0.00 in0.0 mm
08:30 PM 68.1°F20.1°C 54.6°F12.6°C 62% 3.4 mph NNW5.5 kmh NNW 5.0 mph8.0 kmh 30.09 in1019.0 mb - 0.00 in0.0 mm 0.00 in0.0 mm
09:00 PM 67.9°F19.9°C 54.8°F12.7°C 63% 3.7 mph N6.0 kmh N 5.0 mph8.0 kmh 30.09 in1019.0 mb - 0.00 in0.0 mm 0.00 in0.0 mm
09:30 PM 68.1°F20.1°C 55.0°F12.8°C 63% 3.0 mph N4.8 kmh N 5.0 mph8.0 kmh 30.09 in1019.0 mb - 0.00 in0.0 mm 0.00 in0.0 mm
10:00 PM 67.7°F19.8°C 55.1°F12.8°C 64% 0.5 mph N0.8 kmh N 3.0 mph4.8 kmh 30.09 in1019.0 mb - 0.00 in0.0 mm 0.00 in0.0 mm
10:30 PM 65.8°F18.8°C 55.0°F12.8°C 68% 0.1 mph N0.2 kmh N 2.0 mph3.2 kmh 30.09 in1019.0 mb - 0.00 in0.0 mm 0.00 in0.0 mm
11:00 PM 66.1°F18.9°C 54.8°F12.7°C 67% 0.1 mph N0.2 kmh N 1.0 mph1.6 kmh 30.09 in1019.0 mb - 0.00 in0.0 mm 0.00 in0.0 mm
11:30 PM 65.8°F18.8°C 54.9°F12.7°C 68% 4.5 mph NNW7.2 kmh NNW 6.0 mph9.7 kmh 30.08 in1018.6 mb - 0.00 in0.0 mm 0.00 in0.0 mm